Terminal Aerodrome Forecast
Issued by NWS Mobile, AL

Home | Current Version | Previous Version | Text Only | Print | Product List | Glossary On
Versions: 1 2 3 4 5 6 7 8 9 10 11 12 13 14 15 16 17 18 19 20 21 22 23 24 25 26
000
FTUS44 KMOB 252329
TAFPNS
TAF
KPNS 252329Z 2600/2624 02005KT P6SM VCSH FEW045 BKN200
     FM260300 36003KT P6SM SCT035 BKN200
     FM260600 01004KT P6SM OVC200
     FM261800 11006KT P6SM VCSH SCT030 BKN250=

USA.gov is the U.S. government's official web portal to all federal, state and local government web resources and services.